Terminal Aerodrome Forecast
Issued by NWS Charleston, WV

Home | Current Version | Previous Version | Text Only | Print | Product List | Glossary On
Versions: 1 2 3 4 5 6 7 8 9 10 11 12 13 14 15 16 17 18 19 20 21 22
000
FTUS41 KRLX 301700
TAFPKB
TAF
KPKB 301727Z 3018/3118 32003KT P6SM SCT035 BKN045
     FM310200 00000KT P6SM BKN030
     FM310800 00000KT 6SM BR BKN030
     FM311300 00000KT P6SM OVC025=

USA.gov is the U.S. government's official web portal to all federal, state and local government web resources and services.